Anatife — FGE8389 — position and weather

sailwx.info

Track history (hours):
 
Tides and Currents Weather Stations Pressure Air Temp Water Temp Dewpoint Dewpoint Depression Visibility Wind Speed Wind Dir Waves Ship Positions

Anatife

Last reported at 2017-Nov-16 19:39 UTC. Time now 2017-Nov-18 12:25 UTC.
Position N 47°18' W 002°05'.

Length 41 m; draft 2 m.

Type: Tanker. MMSI: 227681520.

Date/timePositionNaut miles runAvg speedWind from/ knotsBaromVisibWave heightAir tempDewpointWater temp
2017-Nov-16 19:39N 47°18' W 002°05'0 0.0
2017-Nov-16 19:31N 47°18' W 002°05'2 4.4
2017-Nov-16 19:00N 47°18' W 002°08'4 6.7
2017-Nov-16 18:24N 47°15' W 002°13'3 6.9
2017-Nov-16 18:01N 47°14' W 002°16'4 8.4
2017-Nov-16 17:31N 47°10' W 002°19'5 9.1
2017-Nov-16 17:01N 47°06' W 002°23'4 8.9
2017-Nov-16 16:30N 47°03' W 002°27'5 9.3
2017-Nov-16 16:01N 46°58' W 002°28'4 8.8
2017-Nov-16 15:31N 46°54' W 002°27'5 9.5
2017-Nov-16 15:00N 46°50' W 002°24'5 9.6
2017-Nov-16 14:31N 46°45' W 002°21'2 3.5
2017-Nov-16 14:00N 46°44' W 002°21'0 0.0
2017-Nov-16 13:30N 46°44' W 002°21'0 0.0
2017-Nov-16 13:00N 46°44' W 002°21'0 0.0
2017-Nov-16 12:31N 46°44' W 002°21'0 0.0
2017-Nov-16 12:01N 46°44' W 002°21'0 0.0
2017-Nov-16 11:31N 46°44' W 002°21'0 0.0
2017-Nov-16 11:00N 46°44' W 002°21'0 0.0
2017-Nov-16 10:31N 46°44' W 002°21'0 0.0
2017-Nov-16 10:00N 46°44' W 002°21'0 0.0
2017-Nov-16 09:31N 46°44' W 002°21'0 0.0
2017-Nov-16 08:58N 46°44' W 002°21'0 0.0
2017-Nov-16 08:06N 46°44' W 002°21'0 0.0
2017-Nov-16 07:59N 46°44' W 002°21'0 0.0
2017-Nov-16 07:19N 46°44' W 002°21'0 0.0
2017-Nov-16 07:00N 46°44' W 002°21'0 0.0
2017-Nov-16 06:31N 46°44' W 002°21'0 0.0
2017-Nov-16 06:00N 46°44' W 002°21'0 0.0
2017-Nov-16 05:20N 46°44' W 002°21'0 0.0
2017-Nov-16 05:01N 46°44' W 002°21'0 0.0
2017-Nov-16 04:11N 46°44' W 002°21'0 0.0
2017-Nov-16 03:45N 46°44' W 002°21'0 0.0
2017-Nov-16 03:28N 46°44' W 002°21'0 0.0
2017-Nov-16 02:59N 46°44' W 002°21'0 0.0
2017-Nov-16 02:27N 46°44' W 002°21'0 0.0
2017-Nov-16 01:58N 46°44' W 002°21'0 0.0
2017-Nov-16 01:30N 46°44' W 002°21'0 0.0
2017-Nov-16 00:59N 46°44' W 002°21'0 0.0
2017-Nov-16 00:27N 46°44' W 002°21'0 0.0
2017-Nov-16 00:01N 46°44' W 002°21'0 0.0
2017-Nov-15 23:31N 46°44' W 002°21'0 0.0
2017-Nov-15 22:51N 46°44' W 002°21'0 0.0
2017-Nov-15 22:30N 46°44' W 002°21'0 0.0
2017-Nov-15 21:55N 46°44' W 002°21'0 0.2
2017-Nov-15 21:31N 46°44' W 002°21'3 5.8
2017-Nov-15 20:59N 46°46' W 002°22'4 8.7
2017-Nov-15 20:31N 46°50' W 002°25'5 8.4
2017-Nov-15 19:58N 46°54' W 002°28'4 8.7
2017-Nov-15 19:31N 46°58' W 002°28'5 9.3
2017-Nov-15 18:55N 47°03' W 002°27'410.2
2017-Nov-15 18:30N 47°07' W 002°22'5 9.8
2017-Nov-15 18:00N 47°11' W 002°18'510.7
2017-Nov-15 17:31N 47°15' W 002°14'611.2
2017-Nov-15 17:00N 47°18' W 002°07'1 2.7
2017-Nov-15 16:31N 47°18' W 002°05'0 0.0
2017-Nov-15 16:01N 47°18' W 002°05'0 0.0
2017-Nov-15 15:29N 47°18' W 002°05'0 0.0
2017-Nov-15 15:00N 47°18' W 002°05'0 0.0
2017-Nov-15 14:31N 47°18' W 002°05'  
2017-Nov-11 02:07N 47°18' W 002°05'0 0.6
2017-Nov-11 01:55N 47°18' W 002°05'3 7.0
2017-Nov-11 01:30N 47°18' W 002°09'4 7.8
2017-Nov-11 00:59N 47°15' W 002°14'4 8.0
2017-Nov-11 00:30N 47°13' W 002°18'5 9.3
2017-Nov-10 23:59N 47°13' W 002°25'9 9.9
2017-Nov-10 23:04N 47°15' W 002°38'210.0
2017-Nov-10 22:54N 47°15' W 002°41'510.0
2017-Nov-10 22:24N 47°16' W 002°48'410.2
2017-Nov-10 21:58N 47°18' W 002°54'510.4
2017-Nov-10 21:30N 47°19' W 003°01'510.5
2017-Nov-10 21:00N 47°21' W 003°08'1 0.1
2017-Nov-10 09:19N 47°21' W 003°09'0 1.3
2017-Nov-10 09:00N 47°21' W 003°09'0 0.7
2017-Nov-10 08:30N 47°21' W 003°08'0 0.6
2017-Nov-10 08:00N 47°21' W 003°08'0 0.5
2017-Nov-10 07:30N 47°21' W 003°08'3 5.0
2017-Nov-10 07:00N 47°20' W 003°04'3 6.9
2017-Nov-10 06:30N 47°19' W 002°59'3 6.9
2017-Nov-10 06:00N 47°18' W 002°55'4 7.4
2017-Nov-10 05:30N 47°17' W 002°50'4 8.0
2017-Nov-10 04:59N 47°15' W 002°44'4 8.4
2017-Nov-10 04:30N 47°14' W 002°38'4 8.5
2017-Nov-10 04:00N 47°14' W 002°32'5 8.6
2017-Nov-10 03:25N 47°13' W 002°24'4 8.9
2017-Nov-10 02:55N 47°12' W 002°18'4 9.9
2017-Nov-10 02:29N 47°15' W 002°13'  
Track history (hours):
 
Tides and Currents Weather Stations Pressure Air Temp Water Temp Dewpoint Dewpoint Depression Visibility Wind Speed Wind Dir Waves Ship Positions

Anatife

Last reported at 2017-Nov-16 19:39 UTC. Time now 2017-Nov-18 12:25 UTC.
Position N 47°18' W 002°05'.

Length 41 m; draft 2 m.

Type: Tanker. MMSI: 227681520.

Date/timePositionNaut miles runAvg speedWind from/ knotsBaromVisibWave heightAir tempDewpointWater temp
2017-Nov-16 19:39N 47°18' W 002°05'0 0.0
2017-Nov-16 19:31N 47°18' W 002°05'2 4.4
2017-Nov-16 19:00N 47°18' W 002°08'4 6.7
2017-Nov-16 18:24N 47°15' W 002°13'3 6.9
2017-Nov-16 18:01N 47°14' W 002°16'4 8.4
2017-Nov-16 17:31N 47°10' W 002°19'5 9.1
2017-Nov-16 17:01N 47°06' W 002°23'4 8.9
2017-Nov-16 16:30N 47°03' W 002°27'5 9.3
2017-Nov-16 16:01N 46°58' W 002°28'4 8.8
2017-Nov-16 15:31N 46°54' W 002°27'5 9.5
2017-Nov-16 15:00N 46°50' W 002°24'5 9.6
2017-Nov-16 14:31N 46°45' W 002°21'2 3.5
2017-Nov-16 14:00N 46°44' W 002°21'0 0.0
2017-Nov-16 13:30N 46°44' W 002°21'0 0.0
2017-Nov-16 13:00N 46°44' W 002°21'0 0.0
2017-Nov-16 12:31N 46°44' W 002°21'0 0.0
2017-Nov-16 12:01N 46°44' W 002°21'0 0.0
2017-Nov-16 11:31N 46°44' W 002°21'0 0.0
2017-Nov-16 11:00N 46°44' W 002°21'0 0.0
2017-Nov-16 10:31N 46°44' W 002°21'0 0.0
2017-Nov-16 10:00N 46°44' W 002°21'0 0.0
2017-Nov-16 09:31N 46°44' W 002°21'0 0.0
2017-Nov-16 08:58N 46°44' W 002°21'0 0.0
2017-Nov-16 08:06N 46°44' W 002°21'0 0.0
2017-Nov-16 07:59N 46°44' W 002°21'0 0.0
2017-Nov-16 07:19N 46°44' W 002°21'0 0.0
2017-Nov-16 07:00N 46°44' W 002°21'0 0.0
2017-Nov-16 06:31N 46°44' W 002°21'0 0.0
2017-Nov-16 06:00N 46°44' W 002°21'0 0.0
2017-Nov-16 05:20N 46°44' W 002°21'0 0.0
2017-Nov-16 05:01N 46°44' W 002°21'0 0.0
2017-Nov-16 04:11N 46°44' W 002°21'0 0.0
2017-Nov-16 03:45N 46°44' W 002°21'0 0.0
2017-Nov-16 03:28N 46°44' W 002°21'0 0.0
2017-Nov-16 02:59N 46°44' W 002°21'0 0.0
2017-Nov-16 02:27N 46°44' W 002°21'0 0.0
2017-Nov-16 01:58N 46°44' W 002°21'0 0.0
2017-Nov-16 01:30N 46°44' W 002°21'0 0.0
2017-Nov-16 00:59N 46°44' W 002°21'0 0.0
2017-Nov-16 00:27N 46°44' W 002°21'0 0.0
2017-Nov-16 00:01N 46°44' W 002°21'0 0.0
2017-Nov-15 23:31N 46°44' W 002°21'0 0.0
2017-Nov-15 22:51N 46°44' W 002°21'0 0.0
2017-Nov-15 22:30N 46°44' W 002°21'0 0.0
2017-Nov-15 21:55N 46°44' W 002°21'0 0.2
2017-Nov-15 21:31N 46°44' W 002°21'3 5.8
2017-Nov-15 20:59N 46°46' W 002°22'4 8.7
2017-Nov-15 20:31N 46°50' W 002°25'5 8.4
2017-Nov-15 19:58N 46°54' W 002°28'4 8.7
2017-Nov-15 19:31N 46°58' W 002°28'5 9.3
2017-Nov-15 18:55N 47°03' W 002°27'410.2
2017-Nov-15 18:30N 47°07' W 002°22'5 9.8
2017-Nov-15 18:00N 47°11' W 002°18'510.7
2017-Nov-15 17:31N 47°15' W 002°14'611.2
2017-Nov-15 17:00N 47°18' W 002°07'1 2.7
2017-Nov-15 16:31N 47°18' W 002°05'0 0.0
2017-Nov-15 16:01N 47°18' W 002°05'0 0.0
2017-Nov-15 15:29N 47°18' W 002°05'0 0.0
2017-Nov-15 15:00N 47°18' W 002°05'0 0.0
2017-Nov-15 14:31N 47°18' W 002°05'  
2017-Nov-11 02:07N 47°18' W 002°05'0 0.6
2017-Nov-11 01:55N 47°18' W 002°05'3 7.0
2017-Nov-11 01:30N 47°18' W 002°09'4 7.8
2017-Nov-11 00:59N 47°15' W 002°14'4 8.0
2017-Nov-11 00:30N 47°13' W 002°18'5 9.3
2017-Nov-10 23:59N 47°13' W 002°25'9 9.9
2017-Nov-10 23:04N 47°15' W 002°38'210.0
2017-Nov-10 22:54N 47°15' W 002°41'510.0
2017-Nov-10 22:24N 47°16' W 002°48'410.2
2017-Nov-10 21:58N 47°18' W 002°54'510.4
2017-Nov-10 21:30N 47°19' W 003°01'510.5
2017-Nov-10 21:00N 47°21' W 003°08'1 0.1
2017-Nov-10 09:19N 47°21' W 003°09'0 1.3
2017-Nov-10 09:00N 47°21' W 003°09'0 0.7
2017-Nov-10 08:30N 47°21' W 003°08'0 0.6
2017-Nov-10 08:00N 47°21' W 003°08'0 0.5
2017-Nov-10 07:30N 47°21' W 003°08'3 5.0
2017-Nov-10 07:00N 47°20' W 003°04'3 6.9
2017-Nov-10 06:30N 47°19' W 002°59'3 6.9
2017-Nov-10 06:00N 47°18' W 002°55'4 7.4
2017-Nov-10 05:30N 47°17' W 002°50'4 8.0
2017-Nov-10 04:59N 47°15' W 002°44'4 8.4
2017-Nov-10 04:30N 47°14' W 002°38'4 8.5
2017-Nov-10 04:00N 47°14' W 002°32'5 8.6
2017-Nov-10 03:25N 47°13' W 002°24'4 8.9
2017-Nov-10 02:55N 47°12' W 002°18'4 9.9
2017-Nov-10 02:29N 47°15' W 002°13'  

Dump ship's entire track history